Time;durP1;ratioP1;P1;durP2;ratioP2;P2;SDS_P1;SDS_P2;PMS_P1;PMS_P2;Temp;Humidity;BMP_temperature;BMP_pressure;BME280_temperature;BME280_humidity;BME280_pressure;Samples;Min_cycle;Max_cycle;Signal;HPM_P1;HPM_P2
2020/12/18 00:01:22;;;;;;;409.00;96.22;;;3.70;97.00;;;;;;5054824;28;20056;-77
2020/12/18 00:03:48;;;;;;;428.52;120.38;;;3.60;96.90;;;;;;5055085;28;20112;-77
2020/12/18 00:06:15;;;;;;;383.50;110.50;;;3.60;97.10;;;;;;5053429;28;20032;-77
2020/12/18 00:08:40;;;;;;;265.10;87.85;;;3.70;97.20;;;;;;5053448;28;20025;-78
2020/12/18 00:11:06;;;;;;;318.42;111.05;;;3.80;97.20;;;;;;5053330;28;20194;-77
2020/12/18 00:13:32;;;;;;;682.78;208.65;;;3.70;96.90;;;;;;5055134;28;20108;-77
2020/12/18 00:15:58;;;;;;;314.17;85.45;;;3.80;96.90;;;;;;5054910;28;20029;-77
2020/12/18 00:18:24;;;;;;;384.90;80.07;;;3.80;97.10;;;;;;5053501;28;20491;-77
2020/12/18 00:20:51;;;;;;;394.63;80.18;;;3.70;96.90;;;;;;5054254;28;20029;-77
2020/12/18 00:23:17;;;;;;;371.08;106.60;;;3.70;97.10;;;;;;5053488;28;20025;-76
2020/12/18 00:25:47;;;;;;;328.15;80.18;;;3.60;97.30;;;;;;5053057;28;20179;-77
2020/12/18 00:28:14;;;;;;;288.48;88.00;;;3.60;97.70;;;;;;5053329;28;20028;-76
2020/12/18 00:30:40;;;;;;;374.27;107.28;;;3.60;97.40;;;;;;5052930;28;20057;-76
2020/12/18 00:33:07;;;;;;;376.17;99.95;;;3.70;97.30;;;;;;5053062;28;20029;-77
2020/12/18 00:35:33;;;;;;;315.73;81.03;;;3.60;97.30;;;;;;5052987;28;20033;-76
2020/12/18 00:37:59;;;;;;;374.98;85.90;;;3.60;97.60;;;;;;5054437;28;20029;-77
2020/12/18 00:40:25;;;;;;;235.18;72.03;;;3.60;97.20;;;;;;5053564;28;20404;-76
2020/12/18 00:42:51;;;;;;;262.85;86.20;;;3.60;97.10;;;;;;5053069;28;20029;-76
2020/12/18 00:45:17;;;;;;;200.25;64.53;;;3.70;97.20;;;;;;5053208;28;20060;-76
2020/12/18 00:47:42;;;;;;;180.52;60.85;;;3.70;97.00;;;;;;5052707;28;20457;-77
2020/12/18 00:50:08;;;;;;;194.82;61.70;;;3.80;96.90;;;;;;5052865;28;20029;-76
2020/12/18 00:52:34;;;;;;;179.10;57.35;;;3.70;96.50;;;;;;5052920;28;20047;-77
2020/12/18 00:55:00;;;;;;;162.15;55.42;;;3.70;96.60;;;;;;5052560;28;20086;-77
2020/12/18 00:57:25;;;;;;;183.75;65.40;;;3.80;96.50;;;;;;5053065;28;20025;-77
2020/12/18 00:59:51;;;;;;;201.45;71.80;;;3.70;96.30;;;;;;5053606;28;20025;-77
2020/12/18 01:02:17;;;;;;;218.70;79.55;;;3.60;96.50;;;;;;5052463;28;20051;-77
2020/12/18 01:04:43;;;;;;;229.52;80.38;;;3.70;96.40;;;;;;5052668;28;20396;-77
2020/12/18 01:07:09;;;;;;;210.35;73.30;;;3.60;96.40;;;;;;5052398;28;20028;-77
2020/12/18 01:09:34;;;;;;;185.18;65.43;;;3.70;96.60;;;;;;5052590;28;20025;-77
2020/12/18 01:12:00;;;;;;;206.55;68.53;;;3.60;96.60;;;;;;5052560;28;20033;-77
2020/12/18 01:14:26;;;;;;;195.18;68.80;;;3.60;96.80;;;;;;5052502;28;20027;-77
2020/12/18 01:16:53;;;;;;;162.45;57.20;;;3.70;96.70;;;;;;5052507;28;20021;-77
2020/12/18 01:19:19;;;;;;;157.98;59.05;;;3.70;96.60;;;;;;5052500;28;20027;-77
2020/12/18 01:21:46;;;;;;;277.50;106.22;;;3.60;96.60;;;;;;5052256;28;20435;-78
2020/12/18 01:24:12;;;;;;;211.38;75.28;;;3.60;96.60;;;;;;5052478;28;20469;-77
2020/12/18 01:26:37;;;;;;;178.23;66.75;;;3.60;96.70;;;;;;5053746;28;20032;-77
2020/12/18 01:29:04;;;;;;;156.95;54.53;;;3.70;96.70;;;;;;5053133;28;20039;-76
2020/12/18 01:31:30;;;;;;;168.82;59.33;;;3.60;96.40;;;;;;5053184;28;20091;-75
2020/12/18 01:33:56;;;;;;;144.85;51.10;;;3.50;96.60;;;;;;5052120;28;20028;-75
2020/12/18 01:36:21;;;;;;;185.07;69.47;;;3.60;96.50;;;;;;5052084;28;20047;-76
2020/12/18 01:38:47;;;;;;;171.57;63.88;;;3.50;96.50;;;;;;5052249;28;20029;-77
2020/12/18 01:41:13;;;;;;;169.93;62.90;;;3.60;96.70;;;;;;5052347;28;20135;-76
2020/12/18 01:43:39;;;;;;;161.02;63.20;;;3.60;96.40;;;;;;5053561;28;20037;-78
2020/12/18 01:46:15;;;;;;;241.90;92.82;;;3.50;96.60;;;;;;5052355;28;20029;-78
2020/12/18 01:48:42;;;;;;;178.93;65.75;;;3.60;96.40;;;;;;5053861;28;20487;-77
2020/12/18 01:51:11;;;;;;;167.02;62.72;;;3.50;96.30;;;;;;5052863;28;20164;-77
2020/12/18 01:53:38;;;;;;;146.35;52.88;;;3.50;96.30;;;;;;5056774;28;20154;-77
2020/12/18 01:56:05;;;;;;;138.88;53.63;;;3.40;96.40;;;;;;5056076;28;20033;-76
2020/12/18 01:58:33;;;;;;;131.90;51.75;;;3.40;96.50;;;;;;5056736;28;20480;-78
2020/12/18 02:01:03;;;;;;;157.02;59.92;;;3.40;96.60;;;;;;5056137;28;20376;-78
2020/12/18 02:03:29;;;;;;;181.23;63.05;;;3.40;96.50;;;;;;5055814;28;20025;-78
2020/12/18 02:05:55;;;;;;;181.85;60.97;;;3.50;96.70;;;;;;5056044;28;20421;-78
2020/12/18 02:08:25;;;;;;;185.65;55.95;;;3.50;96.50;;;;;;5056133;28;20491;-77
2020/12/18 02:10:51;;;;;;;175.82;52.38;;;3.40;96.90;;;;;;5056889;28;20112;-76
2020/12/18 02:13:17;;;;;;;136.73;45.70;;;3.40;97.00;;;;;;5057226;28;20025;-77
2020/12/18 02:15:43;;;;;;;115.35;39.20;;;3.40;97.10;;;;;;5057223;28;20020;-77
2020/12/18 02:18:09;;;;;;;135.38;46.25;;;3.50;96.80;;;;;;5055600;28;20029;-76
2020/12/18 02:20:35;;;;;;;149.35;45.33;;;3.40;96.70;;;;;;5057045;28;20522;-76
2020/12/18 02:23:01;;;;;;;147.48;47.42;;;3.50;96.80;;;;;;5055967;28;20083;-76
2020/12/18 02:25:31;;;;;;;143.55;47.00;;;3.50;97.00;;;;;;5056872;28;20033;-77
2020/12/18 02:27:58;;;;;;;204.95;62.78;;;3.60;96.90;;;;;;5055676;28;20029;-77
2020/12/18 02:30:24;;;;;;;162.00;49.72;;;3.50;96.90;;;;;;5055792;28;20055;-78
2020/12/18 02:32:50;;;;;;;209.02;54.22;;;3.50;97.00;;;;;;5056343;28;20465;-76
2020/12/18 02:35:15;;;;;;;211.57;52.58;;;3.50;97.10;;;;;;5056115;28;20457;-76
2020/12/18 02:37:41;;;;;;;251.68;55.63;;;3.40;97.20;;;;;;5055685;28;20028;-77
2020/12/18 02:40:07;;;;;;;209.73;47.38;;;3.40;97.30;;;;;;5055206;28;20029;-77
2020/12/18 02:42:33;;;;;;;265.33;57.10;;;3.40;97.30;;;;;;5056681;28;20509;-78
2020/12/18 02:44:58;;;;;;;209.13;49.47;;;3.40;97.50;;;;;;5055103;28;20074;-77
2020/12/18 02:47:24;;;;;;;217.07;50.70;;;3.50;97.60;;;;;;5055851;28;20025;-77
2020/12/18 02:49:50;;;;;;;175.43;42.55;;;3.60;97.50;;;;;;5055219;28;20507;-76
2020/12/18 02:52:16;;;;;;;258.48;54.45;;;3.50;97.30;;;;;;5054956;28;20110;-77
2020/12/18 02:54:42;;;;;;;184.10;45.72;;;3.50;97.60;;;;;;5055122;28;20494;-76
2020/12/18 02:57:08;;;;;;;168.00;45.35;;;3.50;97.60;;;;;;5055182;28;20373;-77
2020/12/18 02:59:34;;;;;;;180.13;47.33;;;3.60;97.50;;;;;;5054516;28;20025;-77
2020/12/18 03:01:59;;;;;;;195.98;43.92;;;3.50;97.40;;;;;;5055022;28;20079;-77
2020/12/18 03:04:25;;;;;;;136.52;40.88;;;3.60;97.30;;;;;;5054503;28;20031;-77
2020/12/18 03:06:51;;;;;;;149.07;43.05;;;3.60;97.30;;;;;;5054603;28;20052;-77
2020/12/18 03:09:16;;;;;;;153.50;41.70;;;3.60;97.40;;;;;;5054833;28;20031;-77
2020/12/18 03:11:42;;;;;;;185.07;48.35;;;3.60;97.40;;;;;;5054738;28;20109;-76
2020/12/18 03:14:08;;;;;;;165.85;47.63;;;3.50;97.50;;;;;;5054489;28;20042;-77
2020/12/18 03:16:38;;;;;;;195.23;47.08;;;3.60;97.40;;;;;;5054451;28;20117;-76
2020/12/18 03:19:04;;;;;;;184.13;51.38;;;3.50;97.70;;;;;;5055658;28;20032;-76
2020/12/18 03:21:30;;;;;;;179.93;53.03;;;3.50;97.40;;;;;;5054356;28;20153;-78
2020/12/18 03:23:56;;;;;;;150.57;47.88;;;3.50;97.40;;;;;;5054643;28;20046;-78
2020/12/18 03:26:22;;;;;;;176.30;56.15;;;3.60;97.50;;;;;;5054668;28;20025;-78
2020/12/18 03:28:48;;;;;;;265.13;50.03;;;3.60;97.60;;;;;;5055524;28;20526;-78
2020/12/18 03:31:14;;;;;;;138.52;42.92;;;3.50;97.50;;;;;;5054138;28;20048;-78
2020/12/18 03:33:40;;;;;;;267.55;55.78;;;3.60;97.50;;;;;;5054505;28;20373;-77
2020/12/18 03:36:05;;;;;;;143.60;45.75;;;3.50;97.40;;;;;;5054135;28;20029;-78
2020/12/18 03:38:31;;;;;;;177.57;54.35;;;3.60;97.50;;;;;;5054324;28;20433;-78
2020/12/18 03:40:57;;;;;;;141.80;45.55;;;3.60;97.40;;;;;;5053991;28;20033;-78
2020/12/18 03:43:23;;;;;;;162.23;50.08;;;3.60;97.40;;;;;;5055272;28;20100;-78
2020/12/18 03:45:48;;;;;;;278.85;59.00;;;3.60;97.40;;;;;;5054463;28;20063;-79
2020/12/18 03:48:14;;;;;;;182.50;48.60;;;3.50;97.40;;;;;;5053880;28;20139;-78
2020/12/18 03:50:40;;;;;;;271.42;67.18;;;3.50;97.60;;;;;;5055090;28;20402;-79
2020/12/18 03:53:06;;;;;;;267.23;75.00;;;3.50;97.70;;;;;;5054176;28;20063;-77
2020/12/18 03:55:31;;;;;;;229.75;60.72;;;3.50;97.70;;;;;;5055354;28;20366;-77
2020/12/18 03:57:57;;;;;;;250.25;60.20;;;3.50;97.80;;;;;;5054804;28;20029;-78
2020/12/18 04:00:23;;;;;;;166.75;50.15;;;3.40;97.70;;;;;;5054988;28;20490;-78
2020/12/18 04:02:48;;;;;;;194.15;52.83;;;3.50;98.00;;;;;;5054161;28;20104;-78
2020/12/18 04:05:14;;;;;;;157.15;51.97;;;3.50;97.80;;;;;;5053827;28;20025;-78
2020/12/18 04:07:40;;;;;;;126.35;41.80;;;3.60;97.50;;;;;;5053810;28;20032;-78
2020/12/18 04:10:06;;;;;;;177.77;47.00;;;3.60;97.50;;;;;;5054379;28;20024;-77
2020/12/18 04:12:32;;;;;;;177.90;52.72;;;3.60;97.50;;;;;;5055101;28;20079;-78
2020/12/18 04:14:58;;;;;;;244.43;54.78;;;3.50;97.80;;;;;;5052843;28;20021;-78
2020/12/18 04:17:24;;;;;;;189.75;57.58;;;3.40;97.70;;;;;;5053275;28;20361;-78
2020/12/18 04:19:50;;;;;;;140.93;46.83;;;3.40;98.00;;;;;;5053492;28;20025;-77
2020/12/18 04:22:16;;;;;;;241.05;56.90;;;3.50;98.00;;;;;;5053518;28;20032;-77
2020/12/18 04:24:42;;;;;;;274.58;51.72;;;3.50;97.80;;;;;;5053102;28;20112;-77
2020/12/18 04:27:08;;;;;;;214.65;51.50;;;3.30;98.20;;;;;;5054678;28;20133;-77
2020/12/18 04:29:34;;;;;;;174.10;49.10;;;3.40;98.40;;;;;;5053375;28;20032;-78
2020/12/18 04:32:00;;;;;;;226.88;52.72;;;3.40;98.40;;;;;;5052489;28;20049;-78
2020/12/18 04:34:25;;;;;;;202.60;45.38;;;3.40;98.20;;;;;;5053354;28;20384;-78
2020/12/18 04:36:51;;;;;;;182.77;49.55;;;3.50;98.10;;;;;;5054529;28;20103;-77
2020/12/18 04:39:17;;;;;;;123.50;37.95;;;3.40;98.00;;;;;;5054249;28;20029;-77
2020/12/18 04:41:43;;;;;;;164.98;44.72;;;3.50;98.30;;;;;;5053095;28;20033;-78
2020/12/18 04:44:09;;;;;;;179.52;44.85;;;3.50;98.10;;;;;;5054340;28;20048;-78
2020/12/18 04:46:36;;;;;;;179.63;48.20;;;3.50;98.00;;;;;;5053030;28;20029;-77
2020/12/18 04:49:04;;;;;;;217.48;59.20;;;3.50;98.00;;;;;;5054306;28;20060;-78
2020/12/18 04:51:29;;;;;;;219.32;51.78;;;3.60;98.20;;;;;;5052546;28;20046;-77
2020/12/18 04:53:56;;;;;;;306.00;81.75;;;3.50;97.90;;;;;;5053633;28;20029;-78
2020/12/18 04:56:24;;;;;;;324.23;108.05;;;3.50;98.20;;;;;;5052929;28;20115;-78
2020/12/18 04:58:54;;;;;;;251.00;78.55;;;3.50;98.30;;;;;;5052566;28;20120;-77
2020/12/18 05:01:25;;;;;;;159.65;53.78;;;3.50;98.00;;;;;;5054718;28;20106;-77
2020/12/18 05:03:51;;;;;;;207.52;80.38;;;3.50;98.00;;;;;;5054077;28;20044;-77
2020/12/18 05:06:18;;;;;;;156.05;59.05;;;3.50;98.00;;;;;;5052431;28;20112;-78
2020/12/18 05:08:44;;;;;;;161.02;56.38;;;3.50;98.20;;;;;;5053993;28;20024;-77
2020/12/18 05:11:18;;;;;;;316.83;92.53;;;3.60;97.90;;;;;;5053994;28;20481;-76
2020/12/18 05:13:46;;;;;;;283.23;76.78;;;3.50;97.90;;;;;;5052510;28;20025;-78
2020/12/18 05:16:12;;;;;;;390.45;95.65;;;3.50;98.10;;;;;;5054046;28;20021;-77
2020/12/18 05:18:38;;;;;;;251.65;73.25;;;3.50;98.00;;;;;;5053145;28;20025;-77
2020/12/18 05:21:04;;;;;;;219.48;59.60;;;3.60;98.00;;;;;;5052248;28;20036;-78
2020/12/18 05:23:39;;;;;;;346.75;90.18;;;3.60;97.80;;;;;;5054074;28;20029;-77
2020/12/18 05:26:06;;;;;;;228.10;75.32;;;3.60;97.70;;;;;;5052609;28;20025;-77
2020/12/18 05:28:43;;;;;;;180.30;57.47;;;3.60;97.70;;;;;;5053427;28;20545;-77
2020/12/18 05:31:17;;;;;;;167.73;52.92;;;3.60;97.80;;;;;;5052662;28;20140;-78
2020/12/18 05:33:46;;;;;;;178.57;58.90;;;3.60;97.70;;;;;;5052070;28;20060;-77
2020/12/18 05:36:12;;;;;;;269.27;94.40;;;3.60;97.60;;;;;;5052116;28;20025;-78
2020/12/18 05:38:39;;;;;;;152.25;52.33;;;3.70;97.60;;;;;;5052372;28;20111;-78
2020/12/18 05:41:07;;;;;;;149.00;55.28;;;3.60;97.70;;;;;;5053626;28;20037;-78
2020/12/18 05:43:40;;;;;;;136.52;52.63;;;3.60;97.60;;;;;;5052386;28;20029;-77
2020/12/18 05:46:19;;;;;;;113.72;43.40;;;3.70;97.60;;;;;;5052284;28;20106;-77
2020/12/18 05:48:54;;;;;;;127.10;52.03;;;3.70;97.30;;;;;;5051970;28;20025;-76
2020/12/18 05:51:37;;;;;;;145.80;58.75;;;3.70;96.90;;;;;;5052801;28;20376;-77
2020/12/18 05:54:10;;;;;;;153.80;61.03;;;3.60;97.00;;;;;;5051936;28;20025;-78
2020/12/18 05:56:37;;;;;;;209.05;80.43;;;3.80;97.10;;;;;;5052262;28;20029;-77
2020/12/18 05:59:12;;;;;;;269.35;98.13;;;3.60;97.10;;;;;;5052140;28;20033;-77
2020/12/18 06:01:40;;;;;;;276.08;98.28;;;3.60;97.20;;;;;;5051887;28;20113;-76
2020/12/18 06:04:14;;;;;;;316.52;109.47;;;3.60;97.40;;;;;;5053110;28;20461;-77
2020/12/18 06:06:42;;;;;;;255.05;86.80;;;3.60;97.50;;;;;;5052226;28;20025;-78
2020/12/18 06:09:09;;;;;;;271.67;97.85;;;3.60;97.40;;;;;;5051840;28;20036;-77
2020/12/18 06:11:36;;;;;;;369.25;178.57;;;3.50;97.60;;;;;;5053110;28;20037;-77
2020/12/18 06:14:03;;;;;;;224.10;96.53;;;3.50;97.90;;;;;;5052030;28;20063;-77
2020/12/18 06:16:30;;;;;;;248.25;108.28;;;3.50;97.70;;;;;;5053263;28;20033;-76
2020/12/18 06:19:06;;;;;;;209.13;89.55;;;3.50;97.50;;;;;;5052595;28;20025;-77
2020/12/18 06:21:32;;;;;;;191.07;71.35;;;3.60;97.50;;;;;;5051717;28;20033;-77
2020/12/18 06:23:59;;;;;;;176.48;72.10;;;3.50;97.70;;;;;;5051757;28;20025;-76
2020/12/18 06:26:26;;;;;;;169.70;70.25;;;3.40;97.60;;;;;;5051900;28;20032;-77
2020/12/18 06:28:52;;;;;;;137.05;55.03;;;3.40;97.80;;;;;;5051849;28;20017;-76
2020/12/18 06:31:26;;;;;;;108.38;46.40;;;3.50;97.90;;;;;;5051583;28;20052;-77
2020/12/18 06:33:54;;;;;;;126.75;58.75;;;3.60;97.20;;;;;;5051923;28;20064;-78
2020/12/18 06:36:48;;;;;;;127.35;52.92;;;3.60;97.10;;;;;;5051559;28;20120;-77
2020/12/18 06:39:36;;;;;;;163.43;74.60;;;3.50;97.20;;;;;;5055565;28;20048;-77
2020/12/18 06:42:13;;;;;;;122.25;56.13;;;3.60;97.20;;;;;;5056775;28;20135;-77
2020/12/18 06:44:47;;;;;;;122.70;59.53;;;3.60;97.00;;;;;;5056343;28;20033;-77
2020/12/18 06:47:28;;;;;;;145.68;72.97;;;3.70;97.00;;;;;;5055544;28;20029;-77
2020/12/18 06:49:56;;;;;;;148.82;60.47;;;3.70;96.90;;;;;;5056229;28;20044;-76
2020/12/18 06:52:58;;;;;;;161.98;67.97;;;3.60;97.00;;;;;;5056014;28;20041;-77
2020/12/18 06:55:29;;;;;;;188.98;81.88;;;3.50;97.30;;;;;;5033914;28;20040;-76
2020/12/18 06:58:09;;;;;;;169.05;79.65;;;3.60;97.30;;;;;;5054763;28;20029;-76
2020/12/18 07:00:45;;;;;;;177.00;87.88;;;3.70;97.10;;;;;;5055083;28;20055;-77
2020/12/18 07:03:36;;;;;;;122.22;50.38;;;3.60;97.30;;;;;;5055005;28;20025;-77
2020/12/18 07:06:13;;;;;;;118.57;48.45;;;3.70;97.10;;;;;;5056051;28;20049;-77
2020/12/18 07:08:41;;;;;;;108.55;50.00;;;3.80;97.00;;;;;;5055568;28;20074;-78
2020/12/18 07:11:14;;;;;;;178.27;76.28;;;3.80;97.00;;;;;;5054577;28;20473;-78
2020/12/18 07:13:42;;;;;;;156.32;75.22;;;3.70;96.70;;;;;;5056149;28;20021;-77
2020/12/18 07:16:10;;;;;;;159.18;73.90;;;3.80;97.00;;;;;;5054779;28;20468;-77
2020/12/18 07:18:38;;;;;;;297.98;123.13;;;3.80;96.90;;;;;;5054487;28;20020;-78
2020/12/18 07:21:07;;;;;;;156.63;68.03;;;3.70;96.90;;;;;;5055512;28;20037;-77
2020/12/18 07:23:36;;;;;;;161.27;73.82;;;3.80;97.20;;;;;;5054571;28;20039;-76
2020/12/18 07:26:03;;;;;;;156.27;63.45;;;3.70;97.10;;;;;;5054605;28;20079;-77
2020/12/18 07:28:30;;;;;;;167.93;56.72;;;3.70;97.40;;;;;;5055868;28;20025;-77
2020/12/18 07:30:58;;;;;;;162.23;65.72;;;3.60;97.50;;;;;;5054141;28;20548;-77
2020/12/18 07:33:24;;;;;;;155.35;57.13;;;3.70;97.80;;;;;;5054273;28;20051;-80
2020/12/18 07:35:53;;;;;;;153.95;53.97;;;3.60;97.60;;;;;;5055697;28;20143;-79
2020/12/18 07:38:27;;;;;;;190.35;83.05;;;3.60;97.90;;;;;;5054718;28;20132;-80
2020/12/18 07:41:16;;;;;;;228.40;109.68;;;3.70;97.90;;;;;;5054367;28;20044;-79
2020/12/18 07:43:44;;;;;;;334.33;187.57;;;3.70;97.90;;;;;;5054108;28;20035;-81
2020/12/18 07:46:12;;;;;;;188.55;94.57;;;3.70;97.80;;;;;;5053785;28;20112;-79
2020/12/18 07:48:40;;;;;;;250.25;162.07;;;3.80;97.50;;;;;;5054490;28;20029;-80
2020/12/18 07:51:12;;;;;;;182.32;81.07;;;3.80;97.70;;;;;;5054097;28;20041;-79
2020/12/18 07:53:42;;;;;;;131.68;57.10;;;3.80;97.50;;;;;;5053777;28;20036;-79
2020/12/18 07:56:13;;;;;;;153.70;62.47;;;3.80;97.30;;;;;;5054147;28;20021;-81
2020/12/18 07:58:57;;;;;;;129.18;52.88;;;3.70;97.50;;;;;;5055634;28;20032;-80
2020/12/18 08:01:27;;;;;;;123.30;47.78;;;3.60;97.50;;;;;;5053903;28;20595;-79
2020/12/18 08:04:01;;;;;;;159.23;69.35;;;3.60;97.70;;;;;;5053787;28;20033;-78
2020/12/18 08:06:32;;;;;;;148.98;53.72;;;3.70;97.80;;;;;;5055181;28;20028;-80
2020/12/18 08:09:09;;;;;;;129.43;48.08;;;3.60;97.60;;;;;;5053582;28;20457;-78
2020/12/18 08:11:42;;;;;;;99.50;44.05;;;3.70;97.80;;;;;;5053478;28;20041;-79
2020/12/18 08:14:09;;;;;;;132.68;54.80;;;3.80;97.60;;;;;;5053417;28;20025;-78
2020/12/18 08:16:36;;;;;;;149.30;65.18;;;3.90;97.30;;;;;;5054939;28;20052;-78
2020/12/18 08:19:05;;;;;;;184.73;72.07;;;4.00;97.20;;;;;;5053594;28;20028;-78
2020/12/18 08:21:44;;;;;;;155.18;57.55;;;4.00;97.20;;;;;;5053174;28;20484;-78
2020/12/18 08:24:46;;;;;;;139.32;53.70;;;3.90;97.10;;;;;;5053971;28;20377;-77
2020/12/18 08:27:17;;;;;;;322.40;124.95;;;4.00;97.10;;;;;;5016385;28;20120;-79
2020/12/18 08:29:44;;;;;;;222.20;89.75;;;3.90;97.30;;;;;;5050677;28;20366;-78
2020/12/18 08:32:17;;;;;;;215.48;91.28;;;4.00;97.30;;;;;;5053078;28;20059;-79
2020/12/18 08:34:45;;;;;;;279.95;117.15;;;4.10;97.40;;;;;;5054387;28;20061;-78
2020/12/18 08:37:11;;;;;;;202.00;83.03;;;4.10;96.90;;;;;;5052941;28;20029;-78
2020/12/18 08:39:37;;;;;;;180.93;63.40;;;4.10;97.20;;;;;;5053199;28;20427;-79
2020/12/18 08:42:03;;;;;;;226.10;82.53;;;4.10;97.00;;;;;;5054246;28;20032;-80
2020/12/18 08:44:40;;;;;;;190.23;74.40;;;4.10;96.90;;;;;;5053170;28;20025;-78
2020/12/18 08:47:22;;;;;;;160.68;64.38;;;4.20;96.70;;;;;;5052691;28;20029;-79
2020/12/18 08:49:49;;;;;;;285.58;126.07;;;4.20;96.90;;;;;;5052343;28;20381;-78
2020/12/18 08:52:24;;;;;;;198.02;86.75;;;4.20;96.80;;;;;;5052461;28;20033;-78
2020/12/18 08:55:03;;;;;;;144.02;59.10;;;4.30;96.70;;;;;;5052663;28;20138;-77
2020/12/18 08:57:30;;;;;;;153.02;67.90;;;4.30;96.30;;;;;;5052243;28;20484;-76
2020/12/18 09:00:04;;;;;;;134.02;60.60;;;4.30;96.10;;;;;;5052646;28;20029;-76
2020/12/18 09:02:31;;;;;;;144.30;64.63;;;4.30;96.20;;;;;;5052917;28;20029;-77
2020/12/18 09:05:17;;;;;;;133.40;59.03;;;4.30;96.20;;;;;;5052222;28;20025;-77
2020/12/18 09:07:54;;;;;;;149.48;61.95;;;4.30;96.30;;;;;;5052677;28;20036;-76
2020/12/18 09:10:30;;;;;;;140.77;60.55;;;4.30;96.20;;;;;;5052502;28;20138;-78
2020/12/18 09:12:57;;;;;;;138.27;59.83;;;4.30;96.10;;;;;;5052910;28;20428;-77
2020/12/18 09:15:31;;;;;;;173.52;77.38;;;4.30;96.20;;;;;;5052611;28;20029;-78
2020/12/18 09:18:20;;;;;;;175.52;76.10;;;4.20;95.90;;;;;;5052359;28;20116;-78
2020/12/18 09:20:46;;;;;;;163.43;75.93;;;4.30;96.40;;;;;;5053210;28;20519;-77
2020/12/18 09:23:16;;;;;;;117.60;53.72;;;4.30;96.30;;;;;;5052525;28;20115;-78
2020/12/18 09:25:47;;;;;;;206.57;106.38;;;4.40;96.30;;;;;;5052327;28;20116;-77
2020/12/18 09:28:17;;;;;;;153.73;78.93;;;4.30;96.30;;;;;;5053894;28;20025;-78
2020/12/18 09:30:57;;;;;;;347.25;211.02;;;4.30;96.70;;;;;;5052204;28;20076;-79
2020/12/18 09:33:32;;;;;;;631.67;448.17;;;4.40;96.50;;;;;;5052486;28;20063;-78
2020/12/18 09:35:59;;;;;;;607.25;428.73;;;4.50;96.50;;;;;;5052160;28;20040;-78
2020/12/18 09:38:29;;;;;;;412.88;239.00;;;4.60;96.20;;;;;;5052575;28;20032;-78
2020/12/18 09:40:56;;;;;;;292.75;138.45;;;4.60;96.00;;;;;;5052491;28;20124;-78
2020/12/18 09:43:22;;;;;;;488.40;212.18;;;4.50;95.90;;;;;;5052375;28;20028;-79
2020/12/18 09:45:49;;;;;;;218.63;104.00;;;4.60;96.00;;;;;;5052239;28;20469;-77
2020/12/18 09:48:15;;;;;;;444.02;159.30;;;4.50;96.00;;;;;;5053830;28;20029;-77
2020/12/18 09:50:41;;;;;;;162.32;70.07;;;4.40;95.80;;;;;;5051896;28;20044;-77
2020/12/18 09:53:07;;;;;;;278.77;108.70;;;4.50;96.20;;;;;;5051941;28;20029;-78
2020/12/18 09:55:33;;;;;;;1164.13;503.52;;;4.50;96.20;;;;;;5052230;28;20091;-78
2020/12/18 09:58:01;;;;;;;127.35;57.15;;;4.60;96.20;;;;;;5052238;28;20124;-77
2020/12/18 10:00:27;;;;;;;152.93;66.28;;;4.40;96.10;;;;;;5051883;28;20025;-77
2020/12/18 10:02:53;;;;;;;738.13;388.85;;;4.50;96.40;;;;;;5052137;28;20032;-78
2020/12/18 10:05:19;;;;;;;133.85;60.00;;;4.50;96.50;;;;;;5052085;28;20021;-77
2020/12/18 10:07:44;;;;;;;397.45;173.45;;;4.40;96.30;;;;;;5051718;28;20075;-76
2020/12/18 10:10:10;;;;;;;180.57;86.68;;;4.50;96.50;;;;;;5052066;28;20078;-77
2020/12/18 10:12:36;;;;;;;118.30;52.92;;;4.50;96.70;;;;;;5052189;28;20124;-77
2020/12/18 10:15:02;;;;;;;178.18;82.43;;;4.50;96.40;;;;;;5055649;28;20428;-77
2020/12/18 10:17:28;;;;;;;349.10;137.75;;;4.40;96.40;;;;;;5055766;28;20059;-77
2020/12/18 10:19:53;;;;;;;142.15;63.40;;;4.60;96.50;;;;;;5055834;28;20036;-77
2020/12/18 10:22:19;;;;;;;279.75;115.63;;;4.60;96.40;;;;;;5055859;28;20033;-77
2020/12/18 10:24:45;;;;;;;134.38;59.15;;;4.80;96.40;;;;;;5055543;28;20029;-78
2020/12/18 10:27:12;;;;;;;154.77;66.25;;;4.70;96.20;;;;;;5055483;28;20120;-78
2020/12/18 10:29:38;;;;;;;113.20;54.70;;;4.80;96.20;;;;;;5055645;28;20082;-77
2020/12/18 10:32:04;;;;;;;182.23;78.85;;;4.90;95.90;;;;;;5055238;28;20170;-77
2020/12/18 10:34:30;;;;;;;116.80;53.63;;;4.90;96.00;;;;;;5055159;28;20137;-77
2020/12/18 10:36:57;;;;;;;321.65;152.93;;;4.80;95.80;;;;;;5057045;28;20029;-77
2020/12/18 10:39:23;;;;;;;133.88;57.95;;;4.90;95.80;;;;;;5055552;28;20118;-78
2020/12/18 10:41:53;;;;;;;139.68;70.30;;;4.90;95.90;;;;;;5056565;28;20465;-78
2020/12/18 10:44:19;;;;;;;126.05;61.65;;;4.90;95.60;;;;;;5055462;28;20025;-78
2020/12/18 10:46:46;;;;;;;126.85;63.70;;;4.90;95.80;;;;;;5055451;28;20025;-78
2020/12/18 10:49:13;;;;;;;357.10;164.48;;;4.80;95.70;;;;;;5055004;28;20032;-78
2020/12/18 10:51:40;;;;;;;759.88;417.60;;;4.90;96.00;;;;;;5055186;28;20075;-77
2020/12/18 10:54:06;;;;;;;222.55;113.63;;;4.90;96.00;;;;;;5055227;28;20079;-78
2020/12/18 10:56:32;;;;;;;199.80;93.05;;;4.90;95.90;;;;;;5055094;28;20154;-79
2020/12/18 10:58:58;;;;;;;200.98;94.70;;;4.80;95.80;;;;;;5055041;28;20036;-78
2020/12/18 11:01:24;;;;;;;420.48;187.90;;;4.90;96.10;;;;;;5055083;28;20033;-78
2020/12/18 11:03:50;;;;;;;733.92;374.83;;;5.00;96.00;;;;;;5054834;28;20029;-79
2020/12/18 11:06:16;;;;;;;439.02;232.70;;;5.00;95.80;;;;;;5056583;28;20060;-80
2020/12/18 11:08:41;;;;;;;1218.38;561.25;;;5.10;95.80;;;;;;5056276;28;20020;-78
2020/12/18 11:11:14;;;;;;;1247.50;529.45;;;5.20;95.70;;;;;;5054656;28;20029;-78
2020/12/18 11:13:40;;;;;;;796.78;385.85;;;5.20;95.20;;;;;;5054923;28;20029;-78
2020/12/18 11:16:07;;;;;;;830.92;364.08;;;5.30;95.50;;;;;;5054606;28;20032;-79
2020/12/18 11:18:34;;;;;;;207.60;95.70;;;5.30;95.50;;;;;;5055787;28;20029;-79
2020/12/18 11:21:04;;;;;;;705.30;320.17;;;5.30;95.40;;;;;;5054716;28;20526;-79
2020/12/18 11:23:31;;;;;;;244.73;115.25;;;5.40;95.30;;;;;;5054397;28;20024;-78
2020/12/18 11:25:56;;;;;;;170.02;92.43;;;5.30;95.20;;;;;;5055734;28;20040;-79
2020/12/18 11:28:22;;;;;;;152.52;77.07;;;5.20;95.10;;;;;;5054705;28;20503;-78
2020/12/18 11:30:48;;;;;;;130.35;62.08;;;5.20;95.40;;;;;;5053826;28;20056;-79
2020/12/18 11:33:14;;;;;;;172.77;84.40;;;5.20;95.20;;;;;;5054521;28;20034;-78
2020/12/18 11:35:40;;;;;;;114.30;57.88;;;5.20;95.40;;;;;;5054589;28;20025;-79
2020/12/18 11:38:06;;;;;;;97.55;46.35;;;5.30;95.50;;;;;;5054230;28;20036;-78
2020/12/18 11:40:32;;;;;;;120.93;62.28;;;5.10;95.00;;;;;;5054614;28;20032;-79
2020/12/18 11:42:58;;;;;;;153.73;86.00;;;5.20;95.40;;;;;;5054005;28;20120;-79
2020/12/18 11:45:24;;;;;;;177.60;85.00;;;5.20;95.30;;;;;;5054180;28;20060;-79
2020/12/18 11:47:50;;;;;;;369.65;199.27;;;5.20;95.50;;;;;;5055111;28;20032;-79
2020/12/18 11:50:17;;;;;;;144.43;73.80;;;5.20;95.60;;;;;;5054804;28;20083;-78
2020/12/18 11:52:42;;;;;;;223.13;117.75;;;5.10;95.30;;;;;;5054073;28;20119;-78
2020/12/18 11:55:08;;;;;;;137.40;70.22;;;5.20;95.70;;;;;;5054550;28;20063;-77
2020/12/18 11:57:34;;;;;;;136.75;72.75;;;5.10;95.80;;;;;;5053810;28;20115;-78
2020/12/18 12:00:00;;;;;;;233.70;119.10;;;5.20;95.80;;;;;;5054988;28;20036;-78
2020/12/18 12:02:25;;;;;;;204.73;113.45;;;5.20;95.60;;;;;;5053905;28;20025;-78
2020/12/18 12:04:51;;;;;;;156.45;80.78;;;5.20;95.80;;;;;;5053816;28;20083;-78
2020/12/18 12:07:17;;;;;;;145.23;74.55;;;5.10;96.00;;;;;;5052357;28;20115;-79
2020/12/18 12:09:43;;;;;;;278.50;128.10;;;5.10;96.10;;;;;;5053303;28;20029;-80
2020/12/18 12:12:12;;;;;;;199.65;92.50;;;5.10;96.20;;;;;;5053167;28;20633;-79
2020/12/18 12:14:38;;;;;;;212.95;93.13;;;5.10;96.30;;;;;;5053254;28;20032;-79
2020/12/18 12:17:04;;;;;;;415.48;194.07;;;5.00;96.40;;;;;;5053703;28;20025;-80
2020/12/18 12:19:30;;;;;;;772.10;444.55;;;5.00;96.40;;;;;;5053141;28;20158;-78
2020/12/18 12:21:57;;;;;;;263.30;121.25;;;5.00;96.60;;;;;;5053886;28;20047;-78
2020/12/18 12:24:24;;;;;;;401.23;186.52;;;5.00;96.50;;;;;;5054592;28;20036;-79
2020/12/18 12:26:50;;;;;;;185.90;80.97;;;4.90;96.60;;;;;;5054310;28;20021;-80
2020/12/18 12:29:16;;;;;;;264.65;111.75;;;4.90;96.70;;;;;;5053663;28;20028;-80
2020/12/18 12:31:42;;;;;;;303.95;134.32;;;5.00;96.70;;;;;;5053483;28;20045;-80